Airfield :
LOGIN :

Register | Disclaimer

   EN    FR    IT 

 










Legend :    VFR   Marginal VFR   IFR   Intensive IFR   Very Intensive IFR
Visi :
Ceiling :
>= 8 km
>= 3000ft
5 to 8 km
1000 to 3000 ft
1500m to 5 km
500 to 1000 ft
800 to 1500m
200 to 500 ft
< 800m
< 200 ft
Symbols :   Thunderstorms  Fog  Heavy snow  Heavy precipitations  Wind > 20 kt
SIGMETs :     Misc.  Thunderstorms  Icing  Turbulence  Mountain Waves  Volcanic Ashes






- Airport Elevation : 1249 ft


ETSN - Neuburg AB

CURRENT METAR :
  • 190720Z VRB01KT 9999 FEW012 SCT018 BKN040 M01/M01 Q1031 BLU

EXPIRED METARs :
  • 190659Z 24003KT 9999 FEW012 SCT035 BKN055 00/M01 Q1031 BLU
  • 190620Z 17002KT 6000 BKN055 M01/M02 Q1030 WHT
  • 190520Z 26003KT 9999 FEW012 SCT060 M00/M01 Q1030 BLU+

TAF TAF ETSN
Valid from the 19 at 06:00 until the 19 at 15:00 UTC


190510Z 1906/1915 25005KT 9999 NSW SCT025 BKN060
TEMPO 1906/1915 29010KT 4000 SHRASN BKN015TCU BY ETGL



MET'MAP, your aeronautical weather chart ! - Copyright ORBIFLY December 2007 - Disclaimer

ORBIFLY MET'MAP TEAM :

Programming & Development : Alexandra Zaïnal
Concept & original design : Baudouin d'Aumeries
Assistance for programming : Marc-Olivier Méhu
Technical & hardware support : Manuel Goepfert

Contact : metmap@orbifly.com




SOURCES & CREDITS :

   NOAA